Time;durP1;ratioP1;P1;durP2;ratioP2;P2;SDS_P1;SDS_P2;PMS_P1;PMS_P2;Temp;Humidity;BMP_temperature;BMP_pressure;BME280_temperature;BME280_humidity;BME280_pressure;Samples;Min_cycle;Max_cycle;Signal;HPM_P1;HPM_P2
2022/01/13 00:00:45;;;;;;;18.00;7.68;;;;;;;1.99;100.00;103666.06;6367708;28;19919;-80
2022/01/13 00:03:47;;;;;;;15.88;6.72;;;;;;;1.99;100.00;103667.78;6362281;28;20050;-79
2022/01/13 00:06:50;;;;;;;25.33;8.55;;;;;;;2.01;100.00;103663.56;6364988;28;20051;-79
2022/01/13 00:09:51;;;;;;;26.35;8.43;;;;;;;2.00;100.00;103661.78;6365649;28;20044;-80
2022/01/13 00:12:58;;;;;;;21.98;9.30;;;;;;;2.01;100.00;103658.38;6361736;27;20063;-80
2022/01/13 00:16:24;;;;;;;20.50;7.95;;;;;;;1.98;100.00;103656.53;6359826;28;20083;-79
2022/01/13 00:19:35;;;;;;;23.65;7.65;;;;;;;1.97;100.00;103654.78;6360301;28;20679;-78
2022/01/13 00:22:50;;;;;;;19.25;7.90;;;;;;;2.00;100.00;103665.28;6359098;28;20085;-79
2022/01/13 00:25:54;;;;;;;22.60;9.07;;;;;;;2.02;100.00;103658.41;6355169;28;20089;-78
2022/01/13 00:28:59;;;;;;;28.33;9.55;;;;;;;1.99;100.00;103652.22;6357887;28;20421;-78
2022/01/13 00:32:00;;;;;;;20.52;7.93;;;;;;;1.99;100.00;103662.59;6356386;27;20048;-78
2022/01/13 00:35:02;;;;;;;33.92;9.20;;;;;;;1.94;100.00;103657.28;6358829;28;20055;-78
2022/01/13 00:38:04;;;;;;;22.30;7.85;;;;;;;1.97;100.00;103661.69;6356073;28;20438;-79
2022/01/13 00:41:07;;;;;;;25.23;8.02;;;;;;;1.97;100.00;103659.09;6355885;28;20048;-78
2022/01/13 00:44:09;;;;;;;28.90;7.68;;;;;;;1.96;100.00;103662.53;6355892;28;20437;-78
2022/01/13 00:47:11;;;;;;;32.42;10.18;;;;;;;1.92;100.00;103651.19;6352743;28;20414;-79
2022/01/13 00:50:13;;;;;;;24.00;8.55;;;;;;;1.94;100.00;103643.44;6353473;28;20097;-79
2022/01/13 00:53:16;;;;;;;25.25;7.85;;;;;;;1.94;100.00;103643.44;6351409;28;20051;-79
2022/01/13 00:56:18;;;;;;;27.80;8.88;;;;;;;1.91;100.00;103644.25;6353094;28;20055;-79
2022/01/13 00:59:20;;;;;;;17.23;7.10;;;;;;;1.97;100.00;103652.19;6354604;28;20054;-79
2022/01/13 01:02:21;;;;;;;26.15;7.82;;;;;;;1.90;100.00;103644.19;6348523;28;20043;-79
2022/01/13 01:05:23;;;;;;;32.13;8.50;;;;;;;1.84;100.00;103659.56;6329334;28;20612;-79
2022/01/13 01:08:26;;;;;;;22.80;7.40;;;;;;;1.81;100.00;103659.47;6331862;28;20048;-79
2022/01/13 01:11:28;;;;;;;21.33;6.25;;;;;;;1.84;100.00;103652.66;6336649;28;20044;-79
2022/01/13 01:14:32;;;;;;;20.73;7.68;;;;;;;1.83;100.00;103663.88;6340256;28;20048;-79
2022/01/13 01:17:41;;;;;;;21.75;7.45;;;;;;;1.90;100.00;103657.16;6338792;28;20063;-80
2022/01/13 01:20:49;;;;;;;20.92;7.93;;;;;;;1.88;100.00;103664.03;6333384;28;20044;-79
2022/01/13 01:24:16;;;;;;;19.90;7.18;;;;;;;1.84;100.00;103669.94;6331620;28;20050;-79
2022/01/13 01:27:18;;;;;;;19.00;7.95;;;;;;;1.86;100.00;103670.84;6328562;28;20055;-79
2022/01/13 01:30:29;;;;;;;25.40;6.15;;;;;;;1.89;100.00;103671.84;6331162;28;20055;-79
2022/01/13 01:33:30;;;;;;;29.02;8.95;;;;;;;1.87;100.00;103670.94;6335342;28;20101;-79
2022/01/13 01:36:32;;;;;;;18.60;7.20;;;;;;;1.85;100.00;103667.38;6331854;28;20048;-79
2022/01/13 01:39:35;;;;;;;25.20;7.40;;;;;;;1.80;100.00;103657.72;6332385;28;20056;-79
2022/01/13 01:42:37;;;;;;;29.40;9.77;;;;;;;1.80;100.00;103658.59;6336099;28;20044;-79
2022/01/13 01:45:44;;;;;;;22.75;7.78;;;;;;;1.82;100.00;103653.44;6334355;28;20093;-79
2022/01/13 01:48:45;;;;;;;20.92;6.35;;;;;;;1.80;100.00;103645.63;6335213;28;20556;-79
2022/01/13 01:51:48;;;;;;;24.30;7.68;;;;;;;1.82;100.00;103649.16;6334373;28;20044;-79
2022/01/13 01:54:51;;;;;;;23.88;7.03;;;;;;;1.78;100.00;103644.72;6330741;28;20434;-79
2022/01/13 01:57:53;;;;;;;20.98;8.77;;;;;;;1.76;100.00;103634.28;6329186;28;20048;-79
2022/01/13 02:00:55;;;;;;;26.90;8.05;;;;;;;1.73;100.00;103625.56;6328257;28;20047;-79
2022/01/13 02:03:56;;;;;;;24.80;7.78;;;;;;;1.71;100.00;103619.44;6347144;28;20047;-80
2022/01/13 02:07:00;;;;;;;19.38;6.45;;;;;;;1.73;100.00;103618.66;6349625;28;20078;-80
2022/01/13 02:10:03;;;;;;;22.35;6.88;;;;;;;1.70;100.00;103625.47;6350182;28;20047;-79
2022/01/13 02:13:08;;;;;;;19.45;7.78;;;;;;;1.72;100.00;103627.25;6347458;28;20367;-78
2022/01/13 02:16:26;;;;;;;24.77;9.38;;;;;;;1.77;100.00;103623.09;6349716;28;20426;-79
2022/01/13 02:19:27;;;;;;;22.25;7.63;;;;;;;1.75;100.00;103627.34;6350070;28;20051;-79
2022/01/13 02:22:30;;;;;;;23.00;8.10;;;;;;;1.74;100.00;103617.81;6347667;28;20048;-77
2022/01/13 02:25:32;;;;;;;20.95;7.40;;;;;;;1.74;100.00;103614.34;6348152;28;20059;-79
2022/01/13 02:28:34;;;;;;;23.63;6.93;;;;;;;1.70;100.00;103612.50;6349751;28;20530;-79
2022/01/13 02:31:36;;;;;;;25.90;7.47;;;;;;;1.75;100.00;103616.09;6349527;28;20040;-79
2022/01/13 02:34:37;;;;;;;22.63;7.05;;;;;;;1.78;100.00;103621.38;6348572;28;20052;-80
2022/01/13 02:37:40;;;;;;;21.73;7.68;;;;;;;1.76;100.00;103623.91;6350361;28;20048;-79
2022/01/13 02:40:41;;;;;;;22.23;6.55;;;;;;;1.83;100.00;103611.16;6354408;28;20055;-78
2022/01/13 02:43:44;;;;;;;18.15;8.07;;;;;;;1.84;100.00;103606.00;6355814;28;20051;-78
2022/01/13 02:47:08;;;;;;;17.65;6.20;;;;;;;1.83;100.00;103604.25;6356531;28;20083;-78
2022/01/13 02:50:11;;;;;;;28.17;7.50;;;;;;;1.79;100.00;103584.25;6352829;28;20494;-79
2022/01/13 02:53:14;;;;;;;22.50;8.02;;;;;;;1.77;100.00;103585.91;6351803;28;20079;-78
2022/01/13 02:56:16;;;;;;;15.52;5.70;;;;;;;1.78;100.00;103582.50;6350209;28;20043;-78
2022/01/13 02:59:17;;;;;;;17.33;5.65;;;;;;;1.78;100.00;103580.78;6350592;28;20678;-79
2022/01/13 03:02:18;;;;;;;23.25;7.93;;;;;;;1.79;100.00;103568.69;6349325;28;20047;-78
2022/01/13 03:05:20;;;;;;;23.95;7.55;;;;;;;1.79;100.00;103568.69;6347563;28;20050;-78
2022/01/13 03:08:23;;;;;;;16.70;7.45;;;;;;;1.80;100.00;103572.16;6349423;28;20552;-78
2022/01/13 03:11:32;;;;;;;25.08;6.82;;;;;;;1.79;100.00;103566.09;6350914;28;20048;-78
2022/01/13 03:14:33;;;;;;;15.23;6.90;;;;;;;1.81;100.00;103558.34;6348800;28;20204;-78
2022/01/13 03:17:34;;;;;;;27.63;7.10;;;;;;;1.83;100.00;103567.06;6349164;28;20049;-78
2022/01/13 03:20:36;;;;;;;24.20;5.65;;;;;;;1.80;100.00;103552.31;6347995;28;20059;-78
2022/01/13 03:23:38;;;;;;;19.10;6.50;;;;;;;1.81;100.00;103561.81;6348873;28;20047;-78
2022/01/13 03:26:41;;;;;;;24.98;7.45;;;;;;;1.78;100.00;103556.56;6349247;28;20048;-79
2022/01/13 03:29:42;;;;;;;21.33;6.68;;;;;;;1.79;100.00;103563.50;6348564;28;20042;-78
2022/01/13 03:32:44;;;;;;;21.05;7.68;;;;;;;1.79;100.00;103568.69;6353618;28;20054;-78
2022/01/13 03:35:45;;;;;;;31.88;8.10;;;;;;;1.82;100.00;103561.03;6354548;28;20047;-78
2022/01/13 03:38:48;;;;;;;18.50;5.68;;;;;;;1.83;100.00;103560.19;6354036;27;20062;-78
2022/01/13 03:41:49;;;;;;;17.98;6.25;;;;;;;1.78;100.00;103559.16;6356517;27;20051;-78
2022/01/13 03:44:51;;;;;;;11.95;5.47;;;;;;;1.80;100.00;103561.78;6355406;27;20059;-79
2022/01/13 03:47:52;;;;;;;18.70;6.35;;;;;;;1.81;100.00;103555.75;6354175;28;20058;-78
2022/01/13 03:50:53;;;;;;;17.48;6.40;;;;;;;1.82;100.00;103550.66;6354190;28;20062;-78
2022/01/13 03:54:54;;;;;;;15.38;4.75;;;;;;;1.88;100.00;103547.34;6353467;28;20541;-78
2022/01/13 03:58:35;;;;;;;21.92;6.53;;;;;;;1.84;100.00;103556.75;6352269;28;20051;-77
2022/01/13 04:02:05;;;;;;;20.70;6.68;;;;;;;1.82;100.00;103549.75;6307776;28;20047;-77
2022/01/13 04:05:07;;;;;;;13.98;6.63;;;;;;;1.84;100.00;103537.72;6350286;28;20514;-78
2022/01/13 04:08:08;;;;;;;15.82;6.25;;;;;;;1.88;100.00;103531.78;6350446;28;20412;-77
2022/01/13 04:11:17;;;;;;;11.10;6.30;;;;;;;1.86;100.00;103534.31;6342506;28;20050;-77
2022/01/13 04:14:27;;;;;;;23.08;6.07;;;;;;;1.88;100.00;103536.97;6351153;28;20490;-78
2022/01/13 04:17:29;;;;;;;15.75;6.05;;;;;;;1.87;100.00;103541.28;6349335;28;20051;-78
2022/01/13 04:20:32;;;;;;;18.38;7.13;;;;;;;1.92;100.00;103542.28;6349222;28;20051;-78
2022/01/13 04:23:33;;;;;;;24.15;7.53;;;;;;;1.94;100.00;103539.72;6345159;28;20044;-78
2022/01/13 04:26:36;;;;;;;32.08;6.22;;;;;;;1.93;100.00;103535.38;6350531;28;20054;-77
2022/01/13 04:29:41;;;;;;;23.45;8.38;;;;;;;1.98;100.00;103541.56;6349532;28;20048;-77
2022/01/13 04:32:42;;;;;;;17.80;6.97;;;;;;;1.90;100.00;103546.53;6350054;28;20047;-77
2022/01/13 04:35:44;;;;;;;22.17;5.85;;;;;;;1.88;100.00;103548.22;6348312;28;20044;-78
2022/01/13 04:38:45;;;;;;;15.50;6.72;;;;;;;1.89;100.00;103537.00;6349995;28;20499;-77
2022/01/13 04:41:49;;;;;;;24.00;7.10;;;;;;;1.91;100.00;103547.44;6341914;28;20042;-78
2022/01/13 04:44:50;;;;;;;17.27;5.60;;;;;;;1.89;100.00;103538.72;6349820;27;20052;-78
2022/01/13 04:47:53;;;;;;;19.90;6.68;;;;;;;1.89;100.00;103539.59;6350575;28;20054;-78
2022/01/13 04:50:54;;;;;;;16.60;6.15;;;;;;;1.93;100.00;103548.34;6350116;28;20521;-78
2022/01/13 04:53:56;;;;;;;17.48;6.28;;;;;;;1.93;100.00;103541.44;6350639;28;20043;-78
2022/01/13 04:57:15;;;;;;;34.13;7.75;;;;;;;2.00;100.00;103545.09;6351242;28;20054;-78
2022/01/13 05:00:16;;;;;;;16.40;5.80;;;;;;;2.02;100.00;103535.63;6351757;27;20109;-78
2022/01/13 05:03:18;;;;;;;16.80;5.53;;;;;;;2.03;100.00;103543.44;6349607;27;20204;-78
2022/01/13 05:06:19;;;;;;;13.75;5.40;;;;;;;2.08;100.00;103540.97;6342398;28;20043;-78
2022/01/13 05:09:21;;;;;;;12.15;6.30;;;;;;;2.06;100.00;103542.66;6325243;28;20048;-78
2022/01/13 05:12:27;;;;;;;21.38;6.60;;;;;;;2.15;100.00;103542.03;6327693;28;20040;-78
2022/01/13 05:15:29;;;;;;;19.02;6.78;;;;;;;2.10;100.00;103547.09;6326232;28;20136;-78
2022/01/13 05:18:47;;;;;;;15.40;4.97;;;;;;;2.10;100.00;103541.03;6326579;28;20071;-78
2022/01/13 05:22:15;;;;;;;8.95;3.85;;;;;;;2.10;100.00;103538.44;6327062;28;20048;-78
2022/01/13 05:25:18;;;;;;;16.85;6.07;;;;;;;2.08;100.00;103525.41;6326449;28;20189;-78
2022/01/13 05:28:21;;;;;;;10.40;4.43;;;;;;;2.12;100.00;103526.38;6324913;28;20052;-78
2022/01/13 05:31:22;;;;;;;7.32;3.78;;;;;;;2.15;100.00;103526.47;6323961;28;20048;-78
2022/01/13 05:34:24;;;;;;;14.48;5.30;;;;;;;2.15;100.00;103519.56;6339086;28;20047;-78
2022/01/13 05:37:25;;;;;;;18.08;5.78;;;;;;;2.15;100.00;103505.72;6335587;28;20059;-77
2022/01/13 05:40:26;;;;;;;14.27;6.43;;;;;;;2.17;100.00;103502.28;6348871;28;20048;-78
2022/01/13 05:43:29;;;;;;;17.45;4.25;;;;;;;2.18;100.00;103501.47;6343370;28;20040;-78
2022/01/13 05:46:31;;;;;;;14.98;4.93;;;;;;;2.17;100.00;103496.22;6334245;27;20048;-78
2022/01/13 05:49:32;;;;;;;15.52;5.00;;;;;;;2.17;100.00;103498.84;6329347;28;20055;-78
2022/01/13 05:52:33;;;;;;;15.43;5.70;;;;;;;2.19;100.00;103503.22;6324936;28;20530;-78
2022/01/13 05:55:35;;;;;;;22.25;4.18;;;;;;;2.19;100.00;103502.34;6324940;28;20052;-77
2022/01/13 05:58:38;;;;;;;11.65;4.43;;;;;;;2.21;100.00;103498.06;6330287;28;20063;-77
2022/01/13 06:01:39;;;;;;;14.00;4.55;;;;;;;2.20;100.00;103507.56;6343089;28;20066;-78
2022/01/13 06:04:41;;;;;;;7.90;3.15;;;;;;;2.21;100.00;103496.34;6344595;28;20051;-77
2022/01/13 06:07:42;;;;;;;15.07;5.85;;;;;;;2.22;100.00;103508.47;6347459;28;20047;-78
2022/01/13 06:10:46;;;;;;;13.48;5.53;;;;;;;2.23;100.00;103507.66;6347521;28;20051;-77
2022/01/13 06:13:49;;;;;;;13.80;5.50;;;;;;;2.23;100.00;103499.00;6352275;28;20044;-78
2022/01/13 06:16:50;;;;;;;16.70;5.03;;;;;;;2.24;100.00;103500.75;6346384;27;20059;-78
2022/01/13 06:19:51;;;;;;;12.15;5.38;;;;;;;2.34;100.00;103497.56;6351736;28;20055;-78
2022/01/13 06:22:53;;;;;;;14.18;5.50;;;;;;;2.36;100.00;103502.75;6357742;28;20047;-78
2022/01/13 06:25:57;;;;;;;15.13;5.25;;;;;;;2.30;100.00;103493.13;6354269;28;20104;-78
2022/01/13 06:29:00;;;;;;;14.93;5.55;;;;;;;2.27;100.00;103495.63;6348878;28;20414;-78
2022/01/13 06:32:01;;;;;;;9.52;4.60;;;;;;;2.34;100.00;103500.13;6348670;28;20380;-79
2022/01/13 06:35:03;;;;;;;10.07;4.05;;;;;;;2.27;100.00;103490.44;6346151;28;20047;-78
2022/01/13 06:38:05;;;;;;;14.68;4.97;;;;;;;2.31;100.00;103489.69;6341290;28;20511;-79
2022/01/13 06:41:06;;;;;;;11.85;4.07;;;;;;;2.30;100.00;103495.72;6347645;28;20048;-78
2022/01/13 06:44:09;;;;;;;11.23;6.75;;;;;;;2.31;100.00;103492.28;6348176;28;20044;-78
2022/01/13 06:47:11;;;;;;;13.25;5.05;;;;;;;2.31;100.00;103504.38;6348478;28;20056;-79
2022/01/13 06:50:12;;;;;;;17.55;6.80;;;;;;;2.31;100.00;103506.97;6349480;28;20048;-79
2022/01/13 06:53:14;;;;;;;16.92;5.30;;;;;;;2.39;100.00;103502.84;6353647;28;20085;-78
2022/01/13 06:56:15;;;;;;;15.18;4.95;;;;;;;2.28;100.00;103493.09;6352078;28;20425;-78
2022/01/13 06:59:18;;;;;;;13.90;4.88;;;;;;;2.28;100.00;103494.81;6350947;28;20058;-78
2022/01/13 07:02:20;;;;;;;12.50;5.00;;;;;;;2.30;100.00;103506.09;6348056;28;20051;-78
2022/01/13 07:05:21;;;;;;;7.30;3.83;;;;;;;2.29;100.00;103493.97;6352438;28;20095;-78
2022/01/13 07:08:23;;;;;;;12.18;4.47;;;;;;;2.30;100.00;103495.72;6352465;28;20058;-78
2022/01/13 07:11:24;;;;;;;12.95;4.13;;;;;;;2.28;100.00;103490.50;6354169;28;20048;-78
2022/01/13 07:14:27;;;;;;;16.30;4.82;;;;;;;2.28;100.00;103500.88;6353532;28;20059;-78
2022/01/13 07:17:28;;;;;;;12.98;3.60;;;;;;;2.28;100.00;103498.28;6354487;28;20047;-78
2022/01/13 07:20:29;;;;;;;15.98;5.63;;;;;;;2.28;100.00;103502.59;6342662;28;20040;-78
2022/01/13 07:23:31;;;;;;;9.93;3.72;;;;;;;2.29;100.00;103505.22;6340592;28;20079;-78
2022/01/13 07:26:32;;;;;;;20.60;5.53;;;;;;;2.25;100.00;103511.16;6361653;27;20044;-78
2022/01/13 07:29:35;;;;;;;16.45;4.90;;;;;;;2.32;100.00;103525.19;6364762;28;20058;-78
2022/01/13 07:32:37;;;;;;;9.25;3.67;;;;;;;2.30;100.00;103521.66;6346717;28;20506;-78
2022/01/13 07:35:38;;;;;;;9.15;3.80;;;;;;;2.30;100.00;103529.44;6346957;27;20050;-78
2022/01/13 07:38:39;;;;;;;9.57;3.97;;;;;;;2.33;100.00;103519.16;6361549;28;20051;-80
2022/01/13 07:41:42;;;;;;;12.40;4.85;;;;;;;2.36;100.00;103532.19;6368728;28;20466;-79
2022/01/13 07:44:45;;;;;;;13.25;4.68;;;;;;;2.34;100.00;103544.25;6353957;28;21072;-79
2022/01/13 07:47:46;;;;;;;14.57;4.78;;;;;;;2.41;100.00;103542.72;6352976;28;20047;-79
2022/01/13 07:50:48;;;;;;;15.85;4.82;;;;;;;2.37;100.00;103549.53;6355831;28;20077;-79
2022/01/13 07:53:49;;;;;;;14.90;4.43;;;;;;;2.32;100.00;103555.41;6353009;28;20040;-78
2022/01/13 07:56:51;;;;;;;12.52;5.10;;;;;;;2.42;100.00;103554.84;6355954;28;20048;-78
2022/01/13 07:59:54;;;;;;;20.85;5.93;;;;;;;2.37;100.00;103557.31;6361185;28;20052;-78
2022/01/13 08:02:55;;;;;;;11.55;5.43;;;;;;;2.36;100.00;103565.91;6371464;28;20027;-78
2022/01/13 08:05:58;;;;;;;10.38;5.10;;;;;;;2.36;100.00;103571.09;6371458;28;20422;-78
2022/01/13 08:08:59;;;;;;;14.98;4.70;;;;;;;2.36;100.00;103572.81;6368734;28;20079;-78
2022/01/13 08:12:01;;;;;;;22.40;5.78;;;;;;;2.34;100.00;103570.19;6364074;27;20438;-79
2022/01/13 08:15:04;;;;;;;12.70;5.57;;;;;;;2.37;100.00;103574.59;6372212;28;20044;-77
2022/01/13 08:21:24;;;;;;;16.42;4.03;;;;;;;2.30;100.00;103570.97;6368917;28;20056;-78
2022/01/13 08:24:26;;;;;;;12.93;5.38;;;;;;;2.31;100.00;103571.84;6347291;27;20051;-80
2022/01/13 08:27:27;;;;;;;20.83;6.22;;;;;;;2.31;100.00;103561.44;6358575;28;20043;-81
2022/01/13 08:30:30;;;;;;;11.50;5.22;;;;;;;2.35;100.00;103560.69;6348564;28;20044;-83
2022/01/13 08:33:32;;;;;;;11.32;5.63;;;;;;;2.31;100.00;103554.53;6340179;28;20426;-83
2022/01/13 08:36:34;;;;;;;13.23;4.57;;;;;;;2.26;100.00;103558.75;6336401;28;20048;-80
2022/01/13 08:39:42;;;;;;;15.13;5.60;;;;;;;2.28;100.00;103557.97;6331434;28;20563;-80
2022/01/13 08:42:44;;;;;;;11.32;5.28;;;;;;;2.24;100.00;103548.31;6352228;28;20050;-79
2022/01/13 08:45:47;;;;;;;12.95;4.57;;;;;;;2.28;100.00;103541.50;6357071;28;20046;-81
2022/01/13 08:48:48;;;;;;;15.50;5.80;;;;;;;2.30;100.00;103545.00;6357784;28;20052;-81
2022/01/13 08:51:51;;;;;;;11.18;3.75;;;;;;;2.28;100.00;103544.09;6356656;28;20054;-81
2022/01/13 08:54:55;;;;;;;10.82;4.85;;;;;;;2.31;100.00;103545.88;6354987;28;20074;-80
2022/01/13 08:57:57;;;;;;;23.30;5.60;;;;;;;2.33;100.00;103529.53;6346493;28;20073;-80
2022/01/13 09:00:59;;;;;;;17.23;5.45;;;;;;;2.39;100.00;103532.28;6330186;28;20054;-81
2022/01/13 09:04:00;;;;;;;23.35;5.38;;;;;;;2.45;100.00;103524.66;6347220;28;20435;-81
2022/01/13 09:07:02;;;;;;;14.55;5.22;;;;;;;2.46;100.00;103543.69;6359223;28;20051;-78
2022/01/13 09:10:04;;;;;;;7.07;4.15;;;;;;;2.45;100.00;103547.13;6357285;28;20133;-80
2022/01/13 09:13:06;;;;;;;9.05;3.38;;;;;;;2.48;100.00;103550.66;6361523;28;20422;-81
2022/01/13 09:16:15;;;;;;;14.70;5.10;;;;;;;2.47;100.00;103556.72;6362425;28;20047;-81
2022/01/13 09:19:18;;;;;;;21.77;5.10;;;;;;;2.51;100.00;103562.88;6363318;28;20138;-82
2022/01/13 09:22:20;;;;;;;15.40;4.80;;;;;;;2.45;100.00;103562.69;6358606;28;20043;-82
2022/01/13 09:25:21;;;;;;;13.27;4.35;;;;;;;2.48;100.00;103550.66;6358539;28;20039;-81
2022/01/13 09:28:22;;;;;;;10.75;5.00;;;;;;;2.49;100.00;103562.81;6356531;28;20063;-82
2022/01/13 09:31:26;;;;;;;13.05;4.55;;;;;;;2.52;100.00;103559.41;6353608;28;20126;-81
2022/01/13 09:34:28;;;;;;;10.40;4.63;;;;;;;2.51;100.00;103560.25;6350929;28;20496;-81
2022/01/13 09:37:29;;;;;;;14.30;5.53;;;;;;;2.52;100.00;103557.69;6352381;28;20044;-81
2022/01/13 09:40:31;;;;;;;11.43;4.90;;;;;;;2.49;100.00;103552.41;6355411;28;20054;-80
2022/01/13 09:43:32;;;;;;;20.33;5.75;;;;;;;2.45;100.00;103567.88;6354540;28;20050;-81
2022/01/13 09:46:36;;;;;;;15.68;6.22;;;;;;;2.46;100.00;103574.84;6356992;28;20059;-82
2022/01/13 09:49:37;;;;;;;15.90;4.55;;;;;;;2.46;100.00;103567.94;6352864;28;20525;-81
2022/01/13 09:52:39;;;;;;;17.17;6.50;;;;;;;2.50;100.00;103567.19;6345839;28;20043;-81
2022/01/13 09:55:41;;;;;;;14.18;5.15;;;;;;;2.54;100.00;103581.09;6333739;28;20043;-81
2022/01/13 09:58:44;;;;;;;16.40;4.95;;;;;;;2.56;100.00;103582.03;6352389;28;20054;-81
2022/01/13 10:01:46;;;;;;;16.30;6.57;;;;;;;2.56;100.00;103571.63;6335248;28;20046;-80
2022/01/13 10:04:50;;;;;;;18.63;5.35;;;;;;;2.54;100.00;103581.09;6339176;28;20085;-81
2022/01/13 10:07:52;;;;;;;14.52;5.25;;;;;;;2.53;100.00;103582.81;6351579;28;20059;-81
2022/01/13 10:10:54;;;;;;;17.05;5.32;;;;;;;2.48;100.00;103575.75;6353305;28;20047;-81
2022/01/13 10:14:17;;;;;;;13.75;5.13;;;;;;;2.45;100.00;103580.84;6351266;28;20491;-82
2022/01/13 10:17:20;;;;;;;16.88;5.18;;;;;;;2.47;100.00;103579.19;6354942;28;20047;-81
2022/01/13 10:20:23;;;;;;;14.07;4.50;;;;;;;2.43;100.00;103591.19;6355128;28;20119;-80
2022/01/13 10:23:24;;;;;;;20.35;6.10;;;;;;;2.46;100.00;103598.22;6352942;28;20601;-79
2022/01/13 10:26:25;;;;;;;12.38;5.90;;;;;;;2.45;100.00;103576.56;6351456;28;20047;-80
2022/01/13 10:29:40;;;;;;;16.33;4.65;;;;;;;2.49;100.00;103580.09;6353317;28;20055;-81
2022/01/13 10:32:45;;;;;;;17.83;6.32;;;;;;;2.53;100.00;103580.22;6348195;28;20131;-79
2022/01/13 10:35:48;;;;;;;18.92;6.35;;;;;;;2.52;100.00;103585.38;6352857;28;20124;-82
2022/01/13 10:38:54;;;;;;;12.95;5.70;;;;;;;2.48;100.00;103583.53;6353004;28;20044;-81
2022/01/13 10:42:14;;;;;;;12.73;5.60;;;;;;;2.51;100.00;103584.50;6350699;28;20050;-81
2022/01/13 10:45:19;;;;;;;19.00;6.85;;;;;;;2.54;100.00;103574.22;6352128;28;20047;-82
2022/01/13 10:48:23;;;;;;;11.48;5.10;;;;;;;2.50;100.00;103566.31;6355681;28;20635;-80
2022/01/13 10:51:25;;;;;;;16.35;6.55;;;;;;;2.53;100.00;103559.44;6356604;28;20079;-80
2022/01/13 10:54:26;;;;;;;17.38;5.22;;;;;;;2.53;100.00;103549.06;6353156;28;20055;-82
2022/01/13 10:57:29;;;;;;;20.02;6.38;;;;;;;2.55;100.00;103543.94;6355552;28;20059;-82
2022/01/13 11:00:33;;;;;;;26.48;5.95;;;;;;;2.60;100.00;103550.13;6346968;28;20048;-82
2022/01/13 11:03:40;;;;;;;11.00;5.35;;;;;;;2.68;100.00;103529.50;6328915;28;20040;-80
2022/01/13 11:06:42;;;;;;;12.40;5.32;;;;;;;2.68;100.00;103534.69;6355510;28;20051;-82
2022/01/13 11:09:51;;;;;;;17.85;5.57;;;;;;;2.71;100.00;103530.47;6359529;28;20418;-80
2022/01/13 11:12:57;;;;;;;16.60;6.30;;;;;;;2.70;100.00;103531.31;6363043;28;20138;-82
2022/01/13 11:15:59;;;;;;;21.08;6.32;;;;;;;2.66;100.00;103541.59;6343082;28;20518;-83
2022/01/13 11:19:02;;;;;;;14.43;6.93;;;;;;;2.63;100.00;103551.88;6335513;28;20040;-81
2022/01/13 11:22:04;;;;;;;21.35;5.55;;;;;;;2.63;100.00;103546.69;6332938;28;20043;-82
2022/01/13 11:25:07;;;;;;;13.05;5.40;;;;;;;2.68;100.00;103547.69;6352600;28;20043;-82
2022/01/13 11:28:09;;;;;;;16.00;6.45;;;;;;;2.69;100.00;103542.56;6354495;28;20048;-79
2022/01/13 11:31:11;;;;;;;13.38;5.95;;;;;;;2.65;100.00;103545.91;6352648;28;20048;-80
2022/01/13 11:34:16;;;;;;;13.05;4.97;;;;;;;2.71;100.00;103537.38;6346212;28;20039;-80
2022/01/13 11:37:18;;;;;;;18.13;5.90;;;;;;;2.70;100.00;103535.63;6334470;28;20055;-81
2022/01/13 11:40:43;;;;;;;14.20;5.95;;;;;;;2.68;100.00;103526.91;6332754;28;20047;-81
2022/01/13 11:43:44;;;;;;;15.23;5.25;;;;;;;2.72;100.00;103523.56;6333265;28;20182;-83
2022/01/13 11:46:47;;;;;;;18.33;6.40;;;;;;;2.77;100.00;103512.47;6325506;28;20052;-82
2022/01/13 11:49:59;;;;;;;22.45;6.63;;;;;;;2.70;100.00;103523.53;6328042;28;20044;-78
2022/01/13 11:53:00;;;;;;;21.75;6.45;;;;;;;2.70;100.00;103525.25;6351315;28;20044;-80
2022/01/13 11:56:04;;;;;;;20.63;6.57;;;;;;;2.66;100.00;103507.84;6354964;27;20495;-81
2022/01/13 11:59:09;;;;;;;17.02;6.82;;;;;;;2.73;100.00;103505.44;6358712;27;20050;-82
2022/01/13 12:02:25;;;;;;;24.48;7.20;;;;;;;2.73;100.00;103510.63;6354458;28;20514;-80
2022/01/13 12:05:29;;;;;;;16.63;5.57;;;;;;;2.76;100.00;103512.41;6352346;28;20044;-81
2022/01/13 12:08:44;;;;;;;19.88;5.95;;;;;;;2.75;100.00;103505.47;6357608;28;20047;-82
2022/01/13 12:11:50;;;;;;;19.65;6.45;;;;;;;2.71;100.00;103501.91;6362160;28;20600;-81
2022/01/13 12:14:52;;;;;;;25.70;7.13;;;;;;;2.71;100.00;103494.13;6356391;28;20040;-80
2022/01/13 12:17:56;;;;;;;37.95;9.30;;;;;;;2.83;100.00;103487.47;6357278;27;20051;-83
2022/01/13 12:21:20;;;;;;;18.00;7.25;;;;;;;2.79;100.00;103479.59;6355996;27;20054;-82
2022/01/13 12:24:44;;;;;;;23.48;6.70;;;;;;;2.85;100.00;103473.66;6355135;28;20047;-82
2022/01/13 12:27:49;;;;;;;14.50;5.28;;;;;;;2.83;100.00;103472.78;6348542;28;20048;-80
2022/01/13 12:30:51;;;;;;;29.55;8.07;;;;;;;2.86;100.00;103466.75;6352021;28;20043;-82
2022/01/13 12:33:52;;;;;;;20.50;6.68;;;;;;;2.82;100.00;103457.13;6352814;28;20055;-82
2022/01/13 12:36:55;;;;;;;14.48;6.65;;;;;;;2.84;100.00;103458.06;6350478;28;20047;-81
2022/01/13 12:40:02;;;;;;;22.98;6.45;;;;;;;2.86;100.00;103467.66;6352218;28;20054;-81
2022/01/13 12:43:21;;;;;;;21.33;6.22;;;;;;;2.87;100.00;103472.00;6355602;28;20058;-79
2022/01/13 12:46:24;;;;;;;26.58;6.65;;;;;;;2.87;100.00;103466.81;6353974;28;20047;-81
2022/01/13 12:49:25;;;;;;;17.55;5.82;;;;;;;2.90;100.00;103463.38;6352236;28;20059;-81
2022/01/13 12:52:28;;;;;;;19.70;6.18;;;;;;;2.91;100.00;103462.56;6349004;28;20048;-80
2022/01/13 12:55:30;;;;;;;18.67;5.03;;;;;;;2.92;100.00;103453.91;6353258;28;20055;-79
2022/01/13 12:58:35;;;;;;;20.35;7.22;;;;;;;2.93;100.00;103440.97;6353908;28;20050;-80
2022/01/13 13:01:37;;;;;;;16.70;6.28;;;;;;;2.94;100.00;103442.69;6353882;28;20415;-80
2022/01/13 13:04:39;;;;;;;22.75;7.60;;;;;;;3.02;100.00;103445.47;6353878;28;20054;-81
2022/01/13 13:07:43;;;;;;;22.60;7.25;;;;;;;2.96;100.00;103435.84;6351323;28;20055;-81
2022/01/13 13:10:48;;;;;;;17.05;6.25;;;;;;;2.92;100.00;103428.81;6354289;28;20055;-81
2022/01/13 13:13:51;;;;;;;20.25;7.82;;;;;;;2.87;100.00;103433.03;6352536;28;20077;-80
2022/01/13 13:16:53;;;;;;;18.92;6.25;;;;;;;2.93;100.00;103432.28;6353590;28;20071;-79
2022/01/13 13:19:54;;;;;;;21.17;6.82;;;;;;;3.02;100.00;103415.19;6352975;28;20491;-81
2022/01/13 13:22:59;;;;;;;19.67;5.20;;;;;;;3.02;100.00;103415.19;6353686;28;20044;-80
2022/01/13 13:26:05;;;;;;;16.40;6.45;;;;;;;3.00;100.00;103416.00;6344897;27;20044;-79
2022/01/13 13:29:07;;;;;;;19.63;7.72;;;;;;;3.00;100.00;103413.41;6332132;28;20132;-82
2022/01/13 13:32:08;;;;;;;28.70;7.00;;;;;;;2.97;100.00;103405.53;6344086;28;20059;-83
2022/01/13 13:35:12;;;;;;;26.67;7.20;;;;;;;2.98;100.00;103392.56;6357069;28;20047;-84
2022/01/13 13:38:15;;;;;;;17.15;6.50;;;;;;;2.99;100.00;103393.44;6352123;28;20489;-81
2022/01/13 13:41:18;;;;;;;17.70;5.95;;;;;;;3.02;100.00;103389.19;6350877;28;20044;-82
2022/01/13 13:44:21;;;;;;;22.27;5.72;;;;;;;3.01;100.00;103397.84;6348963;28;20048;-83
2022/01/13 13:47:24;;;;;;;21.98;8.43;;;;;;;3.02;100.00;103414.31;6327546;28;20419;-82
2022/01/13 13:50:25;;;;;;;21.92;7.70;;;;;;;3.00;100.00;103423.78;6328625;28;20052;-82
2022/01/13 13:53:28;;;;;;;22.75;7.70;;;;;;;3.00;100.00;103432.47;6327350;28;20522;-80
2022/01/13 13:56:30;;;;;;;20.75;6.93;;;;;;;2.99;100.00;103433.28;6328564;28;20475;-85
2022/01/13 13:59:36;;;;;;;25.30;7.47;;;;;;;2.98;100.00;103441.06;6330779;28;20044;-83
2022/01/13 14:02:38;;;;;;;20.50;6.43;;;;;;;2.96;100.00;103441.03;6353393;28;20413;-86
2022/01/13 14:05:41;;;;;;;23.27;7.88;;;;;;;2.96;100.00;103441.03;6356151;28;20079;-85
2022/01/13 14:08:55;;;;;;;25.27;7.38;;;;;;;2.97;100.00;103445.38;6353419;28;20052;-81